sensor_id;sensor_type;location;lat;lon;timestamp;P1;durP1;ratioP1;P2;durP2;ratioP2
5995;SDS011;3026;53.612;7.278;2022-10-28T00:01:02;8.97;;;5.93;;
5995;SDS011;3026;53.612;7.278;2022-10-28T00:03:32;11.33;;;6.20;;
5995;SDS011;3026;53.612;7.278;2022-10-28T00:06:02;11.47;;;6.10;;
5995;SDS011;3026;53.612;7.278;2022-10-28T00:08:30;10.50;;;6.30;;
5995;SDS011;3026;53.612;7.278;2022-10-28T00:11:03;14.37;;;6.10;;
5995;SDS011;3026;53.612;7.278;2022-10-28T00:13:31;8.00;;;5.70;;
5995;SDS011;3026;53.612;7.278;2022-10-28T00:16:05;10.27;;;6.20;;
5995;SDS011;3026;53.612;7.278;2022-10-28T00:18:34;10.53;;;6.33;;
5995;SDS011;3026;53.612;7.278;2022-10-28T00:21:02;10.90;;;7.63;;
5995;SDS011;3026;53.612;7.278;2022-10-28T00:23:31;8.40;;;5.73;;
5995;SDS011;3026;53.612;7.278;2022-10-28T00:26:02;10.60;;;5.70;;
5995;SDS011;3026;53.612;7.278;2022-10-28T00:28:30;9.03;;;6.43;;
5995;SDS011;3026;53.612;7.278;2022-10-28T00:31:01;11.33;;;6.27;;
5995;SDS011;3026;53.612;7.278;2022-10-28T00:33:30;10.77;;;6.20;;
5995;SDS011;3026;53.612;7.278;2022-10-28T00:36:07;12.23;;;7.00;;
5995;SDS011;3026;53.612;7.278;2022-10-28T00:38:38;10.77;;;6.93;;
5995;SDS011;3026;53.612;7.278;2022-10-28T00:41:06;11.50;;;6.37;;
5995;SDS011;3026;53.612;7.278;2022-10-28T00:43:35;9.00;;;6.57;;
5995;SDS011;3026;53.612;7.278;2022-10-28T00:46:05;8.30;;;6.20;;
5995;SDS011;3026;53.612;7.278;2022-10-28T00:48:40;8.87;;;6.97;;
5995;SDS011;3026;53.612;7.278;2022-10-28T00:51:12;9.67;;;7.67;;
5995;SDS011;3026;53.612;7.278;2022-10-28T00:53:41;12.07;;;7.07;;
5995;SDS011;3026;53.612;7.278;2022-10-28T00:56:12;11.77;;;7.07;;
5995;SDS011;3026;53.612;7.278;2022-10-28T00:58:40;9.67;;;7.23;;
5995;SDS011;3026;53.612;7.278;2022-10-28T01:01:07;14.57;;;7.60;;
5995;SDS011;3026;53.612;7.278;2022-10-28T01:03:35;9.83;;;7.63;;
5995;SDS011;3026;53.612;7.278;2022-10-28T01:06:01;14.53;;;7.37;;
5995;SDS011;3026;53.612;7.278;2022-10-28T01:08:31;17.20;;;8.03;;
5995;SDS011;3026;53.612;7.278;2022-10-28T01:11:03;14.87;;;7.30;;
5995;SDS011;3026;53.612;7.278;2022-10-28T01:13:44;12.90;;;7.87;;
5995;SDS011;3026;53.612;7.278;2022-10-28T01:16:25;9.60;;;7.00;;
5995;SDS011;3026;53.612;7.278;2022-10-28T01:19:03;12.10;;;6.77;;
5995;SDS011;3026;53.612;7.278;2022-10-28T01:24:41;13.90;;;8.00;;
5995;SDS011;3026;53.612;7.278;2022-10-28T01:30:28;10.93;;;7.47;;
5995;SDS011;3026;53.612;7.278;2022-10-28T01:33:09;12.60;;;7.90;;
5995;SDS011;3026;53.612;7.278;2022-10-28T01:35:46;11.97;;;7.20;;
5995;SDS011;3026;53.612;7.278;2022-10-28T01:38:25;16.40;;;7.80;;
5995;SDS011;3026;53.612;7.278;2022-10-28T01:41:00;15.10;;;7.83;;
5995;SDS011;3026;53.612;7.278;2022-10-28T01:43:37;15.43;;;7.53;;
5995;SDS011;3026;53.612;7.278;2022-10-28T01:46:12;16.90;;;8.77;;
5995;SDS011;3026;53.612;7.278;2022-10-28T01:48:46;13.73;;;8.17;;
5995;SDS011;3026;53.612;7.278;2022-10-28T01:51:18;15.10;;;7.67;;
5995;SDS011;3026;53.612;7.278;2022-10-28T01:53:48;11.80;;;7.67;;
5995;SDS011;3026;53.612;7.278;2022-10-28T01:56:20;12.77;;;7.87;;
5995;SDS011;3026;53.612;7.278;2022-10-28T01:58:50;12.33;;;7.47;;
5995;SDS011;3026;53.612;7.278;2022-10-28T02:01:21;13.53;;;7.87;;
5995;SDS011;3026;53.612;7.278;2022-10-28T02:03:51;18.17;;;8.73;;
5995;SDS011;3026;53.612;7.278;2022-10-28T02:06:20;13.10;;;7.63;;
5995;SDS011;3026;53.612;7.278;2022-10-28T02:14:54;14.67;;;8.73;;
5995;SDS011;3026;53.612;7.278;2022-10-28T02:17:36;15.37;;;7.70;;
5995;SDS011;3026;53.612;7.278;2022-10-28T02:20:15;13.57;;;7.37;;
5995;SDS011;3026;53.612;7.278;2022-10-28T02:22:53;14.70;;;8.37;;
5995;SDS011;3026;53.612;7.278;2022-10-28T02:25:28;13.83;;;7.33;;
5995;SDS011;3026;53.612;7.278;2022-10-28T02:28:00;13.23;;;7.30;;
5995;SDS011;3026;53.612;7.278;2022-10-28T02:30:33;11.63;;;8.07;;
5995;SDS011;3026;53.612;7.278;2022-10-28T02:33:09;14.97;;;8.07;;
5995;SDS011;3026;53.612;7.278;2022-10-28T02:35:40;13.27;;;7.80;;
5995;SDS011;3026;53.612;7.278;2022-10-28T02:38:12;10.90;;;8.73;;
5995;SDS011;3026;53.612;7.278;2022-10-28T02:40:42;15.43;;;9.00;;
5995;SDS011;3026;53.612;7.278;2022-10-28T02:43:14;15.20;;;8.63;;
5995;SDS011;3026;53.612;7.278;2022-10-28T02:45:45;11.30;;;7.50;;
5995;SDS011;3026;53.612;7.278;2022-10-28T02:48:17;10.93;;;7.87;;
5995;SDS011;3026;53.612;7.278;2022-10-28T02:50:49;11.97;;;7.80;;
5995;SDS011;3026;53.612;7.278;2022-10-28T02:53:21;10.67;;;8.43;;
5995;SDS011;3026;53.612;7.278;2022-10-28T02:55:54;16.43;;;8.20;;
5995;SDS011;3026;53.612;7.278;2022-10-28T02:58:24;12.90;;;8.13;;
5995;SDS011;3026;53.612;7.278;2022-10-28T03:00:52;14.20;;;8.23;;
5995;SDS011;3026;53.612;7.278;2022-10-28T03:03:18;17.50;;;8.60;;
5995;SDS011;3026;53.612;7.278;2022-10-28T03:05:45;10.50;;;8.17;;
5995;SDS011;3026;53.612;7.278;2022-10-28T03:08:13;15.07;;;9.13;;
5995;SDS011;3026;53.612;7.278;2022-10-28T03:10:40;13.47;;;8.40;;
5995;SDS011;3026;53.612;7.278;2022-10-28T03:13:07;15.27;;;8.20;;
5995;SDS011;3026;53.612;7.278;2022-10-28T03:15:34;10.47;;;8.13;;
5995;SDS011;3026;53.612;7.278;2022-10-28T03:18:02;16.27;;;8.53;;
5995;SDS011;3026;53.612;7.278;2022-10-28T03:20:28;13.57;;;8.97;;
5995;SDS011;3026;53.612;7.278;2022-10-28T03:22:55;15.83;;;9.07;;
5995;SDS011;3026;53.612;7.278;2022-10-28T03:25:23;14.13;;;8.87;;
5995;SDS011;3026;53.612;7.278;2022-10-28T03:27:50;15.50;;;8.73;;
5995;SDS011;3026;53.612;7.278;2022-10-28T03:30:17;18.67;;;9.43;;
5995;SDS011;3026;53.612;7.278;2022-10-28T03:32:44;12.03;;;8.43;;
5995;SDS011;3026;53.612;7.278;2022-10-28T03:35:11;12.50;;;9.00;;
5995;SDS011;3026;53.612;7.278;2022-10-28T03:37:39;14.70;;;8.10;;
5995;SDS011;3026;53.612;7.278;2022-10-28T03:40:07;13.70;;;8.57;;
5995;SDS011;3026;53.612;7.278;2022-10-28T03:42:36;12.77;;;7.97;;
5995;SDS011;3026;53.612;7.278;2022-10-28T03:45:06;15.67;;;8.37;;
5995;SDS011;3026;53.612;7.278;2022-10-28T03:47:33;14.60;;;9.13;;
5995;SDS011;3026;53.612;7.278;2022-10-28T03:50:00;13.43;;;8.67;;
5995;SDS011;3026;53.612;7.278;2022-10-28T03:52:27;12.73;;;8.87;;
5995;SDS011;3026;53.612;7.278;2022-10-28T03:54:54;12.60;;;9.57;;
5995;SDS011;3026;53.612;7.278;2022-10-28T03:57:21;13.93;;;8.93;;
5995;SDS011;3026;53.612;7.278;2022-10-28T03:59:49;14.93;;;8.93;;
5995;SDS011;3026;53.612;7.278;2022-10-28T04:02:16;14.17;;;8.67;;
5995;SDS011;3026;53.612;7.278;2022-10-28T04:04:43;16.53;;;8.63;;
5995;SDS011;3026;53.612;7.278;2022-10-28T04:07:10;14.60;;;8.70;;
5995;SDS011;3026;53.612;7.278;2022-10-28T04:09:37;19.17;;;9.77;;
5995;SDS011;3026;53.612;7.278;2022-10-28T04:12:04;14.50;;;8.93;;
5995;SDS011;3026;53.612;7.278;2022-10-28T04:14:31;14.33;;;9.53;;
5995;SDS011;3026;53.612;7.278;2022-10-28T04:17:00;16.33;;;9.07;;
5995;SDS011;3026;53.612;7.278;2022-10-28T04:19:26;15.30;;;8.77;;
5995;SDS011;3026;53.612;7.278;2022-10-28T04:21:53;17.73;;;9.03;;
5995;SDS011;3026;53.612;7.278;2022-10-28T04:24:20;18.40;;;10.10;;
5995;SDS011;3026;53.612;7.278;2022-10-28T04:26:47;15.30;;;9.23;;
5995;SDS011;3026;53.612;7.278;2022-10-28T04:29:14;15.47;;;8.97;;
5995;SDS011;3026;53.612;7.278;2022-10-28T04:31:42;14.60;;;9.00;;
5995;SDS011;3026;53.612;7.278;2022-10-28T04:34:10;17.03;;;9.00;;
5995;SDS011;3026;53.612;7.278;2022-10-28T04:36:37;14.33;;;9.60;;
5995;SDS011;3026;53.612;7.278;2022-10-28T04:39:04;13.80;;;9.13;;
5995;SDS011;3026;53.612;7.278;2022-10-28T04:41:31;16.77;;;8.60;;
5995;SDS011;3026;53.612;7.278;2022-10-28T04:43:58;12.77;;;9.30;;
5995;SDS011;3026;53.612;7.278;2022-10-28T04:46:25;15.73;;;8.87;;
5995;SDS011;3026;53.612;7.278;2022-10-28T04:48:52;14.20;;;8.63;;
5995;SDS011;3026;53.612;7.278;2022-10-28T04:51:20;15.30;;;9.23;;
5995;SDS011;3026;53.612;7.278;2022-10-28T04:53:47;13.83;;;8.83;;
5995;SDS011;3026;53.612;7.278;2022-10-28T04:56:13;13.53;;;9.10;;
5995;SDS011;3026;53.612;7.278;2022-10-28T04:58:41;13.83;;;9.30;;
5995;SDS011;3026;53.612;7.278;2022-10-28T05:01:08;13.33;;;8.53;;
5995;SDS011;3026;53.612;7.278;2022-10-28T05:03:35;13.07;;;9.00;;
5995;SDS011;3026;53.612;7.278;2022-10-28T05:06:02;15.23;;;8.73;;
5995;SDS011;3026;53.612;7.278;2022-10-28T05:08:31;12.43;;;9.03;;
5995;SDS011;3026;53.612;7.278;2022-10-28T05:10:58;11.90;;;8.80;;
5995;SDS011;3026;53.612;7.278;2022-10-28T05:13:24;16.47;;;8.47;;
5995;SDS011;3026;53.612;7.278;2022-10-28T05:15:51;14.67;;;9.00;;
5995;SDS011;3026;53.612;7.278;2022-10-28T05:18:19;15.13;;;8.80;;
5995;SDS011;3026;53.612;7.278;2022-10-28T05:20:45;14.50;;;8.93;;
5995;SDS011;3026;53.612;7.278;2022-10-28T05:23:17;16.03;;;8.73;;
5995;SDS011;3026;53.612;7.278;2022-10-28T05:25:45;15.33;;;8.23;;
5995;SDS011;3026;53.612;7.278;2022-10-28T05:28:12;10.27;;;8.20;;
5995;SDS011;3026;53.612;7.278;2022-10-28T05:30:39;15.67;;;8.83;;
5995;SDS011;3026;53.612;7.278;2022-10-28T05:33:06;13.37;;;8.50;;
5995;SDS011;3026;53.612;7.278;2022-10-28T05:35:34;15.27;;;8.73;;
5995;SDS011;3026;53.612;7.278;2022-10-28T05:38:01;11.67;;;8.23;;
5995;SDS011;3026;53.612;7.278;2022-10-28T05:40:28;15.13;;;9.27;;
5995;SDS011;3026;53.612;7.278;2022-10-28T05:42:58;12.30;;;9.17;;
5995;SDS011;3026;53.612;7.278;2022-10-28T05:45:25;16.37;;;8.87;;
5995;SDS011;3026;53.612;7.278;2022-10-28T05:47:52;17.20;;;9.30;;
5995;SDS011;3026;53.612;7.278;2022-10-28T05:50:20;16.87;;;9.73;;
5995;SDS011;3026;53.612;7.278;2022-10-28T05:52:48;20.00;;;10.93;;
5995;SDS011;3026;53.612;7.278;2022-10-28T05:55:16;18.70;;;10.73;;
5995;SDS011;3026;53.612;7.278;2022-10-28T05:57:44;16.77;;;9.87;;
5995;SDS011;3026;53.612;7.278;2022-10-28T06:00:13;13.17;;;8.63;;
5995;SDS011;3026;53.612;7.278;2022-10-28T06:02:41;13.03;;;9.10;;
5995;SDS011;3026;53.612;7.278;2022-10-28T06:05:09;17.63;;;9.53;;
5995;SDS011;3026;53.612;7.278;2022-10-28T06:07:37;13.63;;;9.20;;
5995;SDS011;3026;53.612;7.278;2022-10-28T06:10:06;17.23;;;9.23;;
5995;SDS011;3026;53.612;7.278;2022-10-28T06:12:34;14.47;;;9.10;;
5995;SDS011;3026;53.612;7.278;2022-10-28T06:15:02;16.10;;;10.77;;
5995;SDS011;3026;53.612;7.278;2022-10-28T06:17:31;13.80;;;10.23;;
5995;SDS011;3026;53.612;7.278;2022-10-28T06:19:57;14.40;;;9.20;;
5995;SDS011;3026;53.612;7.278;2022-10-28T06:22:25;17.97;;;9.77;;
5995;SDS011;3026;53.612;7.278;2022-10-28T06:24:51;16.07;;;10.43;;
5995;SDS011;3026;53.612;7.278;2022-10-28T06:27:18;14.87;;;9.47;;
5995;SDS011;3026;53.612;7.278;2022-10-28T06:29:45;16.30;;;9.60;;
5995;SDS011;3026;53.612;7.278;2022-10-28T06:32:12;16.37;;;9.13;;
5995;SDS011;3026;53.612;7.278;2022-10-28T06:34:40;15.57;;;9.07;;
5995;SDS011;3026;53.612;7.278;2022-10-28T06:37:07;20.17;;;9.87;;
5995;SDS011;3026;53.612;7.278;2022-10-28T06:39:34;16.13;;;9.00;;
5995;SDS011;3026;53.612;7.278;2022-10-28T06:42:02;14.47;;;8.80;;
5995;SDS011;3026;53.612;7.278;2022-10-28T06:44:29;15.83;;;9.10;;
5995;SDS011;3026;53.612;7.278;2022-10-28T06:46:56;16.90;;;9.10;;
5995;SDS011;3026;53.612;7.278;2022-10-28T06:49:23;15.97;;;9.30;;
5995;SDS011;3026;53.612;7.278;2022-10-28T06:51:51;13.67;;;8.87;;
5995;SDS011;3026;53.612;7.278;2022-10-28T06:54:18;13.83;;;9.37;;
5995;SDS011;3026;53.612;7.278;2022-10-28T06:56:46;15.23;;;9.30;;
5995;SDS011;3026;53.612;7.278;2022-10-28T06:59:12;12.93;;;8.83;;
5995;SDS011;3026;53.612;7.278;2022-10-28T07:01:39;15.37;;;9.03;;
5995;SDS011;3026;53.612;7.278;2022-10-28T07:04:07;15.13;;;8.60;;
5995;SDS011;3026;53.612;7.278;2022-10-28T07:06:36;16.60;;;8.57;;
5995;SDS011;3026;53.612;7.278;2022-10-28T07:09:05;14.10;;;9.07;;
5995;SDS011;3026;53.612;7.278;2022-10-28T07:11:32;15.77;;;9.43;;
5995;SDS011;3026;53.612;7.278;2022-10-28T07:13:59;13.93;;;9.73;;
5995;SDS011;3026;53.612;7.278;2022-10-28T07:16:26;16.80;;;9.93;;
5995;SDS011;3026;53.612;7.278;2022-10-28T07:18:53;12.63;;;8.03;;
5995;SDS011;3026;53.612;7.278;2022-10-28T07:21:20;11.93;;;7.67;;
5995;SDS011;3026;53.612;7.278;2022-10-28T07:23:56;15.57;;;8.97;;
5995;SDS011;3026;53.612;7.278;2022-10-28T07:26:24;16.70;;;8.30;;
5995;SDS011;3026;53.612;7.278;2022-10-28T07:28:51;15.53;;;8.53;;
5995;SDS011;3026;53.612;7.278;2022-10-28T07:31:18;16.20;;;8.73;;
5995;SDS011;3026;53.612;7.278;2022-10-28T07:33:49;13.80;;;7.97;;
5995;SDS011;3026;53.612;7.278;2022-10-28T07:36:17;12.43;;;8.07;;
5995;SDS011;3026;53.612;7.278;2022-10-28T07:38:46;14.33;;;8.13;;
5995;SDS011;3026;53.612;7.278;2022-10-28T07:41:15;14.50;;;9.50;;
5995;SDS011;3026;53.612;7.278;2022-10-28T07:43:45;14.50;;;8.20;;
5995;SDS011;3026;53.612;7.278;2022-10-28T07:46:11;16.87;;;8.13;;
5995;SDS011;3026;53.612;7.278;2022-10-28T07:48:38;15.30;;;8.57;;
5995;SDS011;3026;53.612;7.278;2022-10-28T07:51:06;12.37;;;8.67;;
5995;SDS011;3026;53.612;7.278;2022-10-28T07:53:35;12.23;;;7.90;;
5995;SDS011;3026;53.612;7.278;2022-10-28T07:56:03;12.43;;;8.53;;
5995;SDS011;3026;53.612;7.278;2022-10-28T07:58:33;14.33;;;8.23;;
5995;SDS011;3026;53.612;7.278;2022-10-28T08:01:02;12.60;;;7.30;;
5995;SDS011;3026;53.612;7.278;2022-10-28T08:03:30;14.60;;;8.70;;
5995;SDS011;3026;53.612;7.278;2022-10-28T08:06:00;14.40;;;9.00;;
5995;SDS011;3026;53.612;7.278;2022-10-28T08:08:27;12.77;;;8.27;;
5995;SDS011;3026;53.612;7.278;2022-10-28T08:10:54;15.53;;;8.47;;
5995;SDS011;3026;53.612;7.278;2022-10-28T08:13:21;12.10;;;8.47;;
5995;SDS011;3026;53.612;7.278;2022-10-28T08:15:51;13.40;;;8.17;;
5995;SDS011;3026;53.612;7.278;2022-10-28T08:18:20;15.97;;;8.63;;
5995;SDS011;3026;53.612;7.278;2022-10-28T08:20:47;13.10;;;7.60;;
5995;SDS011;3026;53.612;7.278;2022-10-28T08:23:17;11.53;;;7.67;;
5995;SDS011;3026;53.612;7.278;2022-10-28T08:25:47;22.73;;;8.60;;
5995;SDS011;3026;53.612;7.278;2022-10-28T08:28:15;15.57;;;8.67;;
5995;SDS011;3026;53.612;7.278;2022-10-28T08:30:42;18.70;;;8.30;;
5995;SDS011;3026;53.612;7.278;2022-10-28T08:33:09;10.90;;;7.93;;
5995;SDS011;3026;53.612;7.278;2022-10-28T08:35:38;13.70;;;8.13;;
5995;SDS011;3026;53.612;7.278;2022-10-28T08:38:04;15.97;;;7.83;;
5995;SDS011;3026;53.612;7.278;2022-10-28T08:40:33;13.90;;;7.87;;
5995;SDS011;3026;53.612;7.278;2022-10-28T08:43:08;16.27;;;8.00;;
5995;SDS011;3026;53.612;7.278;2022-10-28T08:45:47;15.10;;;7.90;;
5995;SDS011;3026;53.612;7.278;2022-10-28T08:48:20;18.77;;;7.87;;
5995;SDS011;3026;53.612;7.278;2022-10-28T08:50:57;11.33;;;7.17;;
5995;SDS011;3026;53.612;7.278;2022-10-28T08:53:28;15.60;;;8.10;;
5995;SDS011;3026;53.612;7.278;2022-10-28T08:56:03;15.27;;;8.03;;
5995;SDS011;3026;53.612;7.278;2022-10-28T08:58:39;10.70;;;7.33;;
5995;SDS011;3026;53.612;7.278;2022-10-28T09:01:08;14.33;;;7.73;;
5995;SDS011;3026;53.612;7.278;2022-10-28T09:03:42;14.40;;;7.13;;
5995;SDS011;3026;53.612;7.278;2022-10-28T09:06:15;15.57;;;7.03;;
5995;SDS011;3026;53.612;7.278;2022-10-28T09:08:42;10.20;;;6.80;;
5995;SDS011;3026;53.612;7.278;2022-10-28T09:11:14;10.60;;;7.03;;
5995;SDS011;3026;53.612;7.278;2022-10-28T09:14:02;17.13;;;7.30;;
5995;SDS011;3026;53.612;7.278;2022-10-28T09:16:43;12.83;;;6.77;;
5995;SDS011;3026;53.612;7.278;2022-10-28T09:19:22;43.30;;;9.90;;
5995;SDS011;3026;53.612;7.278;2022-10-28T09:22:06;19.90;;;8.03;;
5995;SDS011;3026;53.612;7.278;2022-10-28T09:24:45;17.37;;;7.37;;
5995;SDS011;3026;53.612;7.278;2022-10-28T09:27:18;15.23;;;6.93;;
5995;SDS011;3026;53.612;7.278;2022-10-28T09:29:57;17.17;;;7.33;;
5995;SDS011;3026;53.612;7.278;2022-10-28T09:32:37;11.73;;;6.60;;
5995;SDS011;3026;53.612;7.278;2022-10-28T09:35:10;11.00;;;6.70;;
5995;SDS011;3026;53.612;7.278;2022-10-28T09:37:43;16.40;;;7.73;;
5995;SDS011;3026;53.612;7.278;2022-10-28T09:40:14;18.03;;;6.90;;
5995;SDS011;3026;53.612;7.278;2022-10-28T09:42:45;18.00;;;7.90;;
5995;SDS011;3026;53.612;7.278;2022-10-28T09:45:16;8.53;;;6.97;;
5995;SDS011;3026;53.612;7.278;2022-10-28T09:47:48;14.93;;;6.87;;
5995;SDS011;3026;53.612;7.278;2022-10-28T09:50:21;14.63;;;6.77;;
5995;SDS011;3026;53.612;7.278;2022-10-28T09:52:55;11.47;;;6.53;;
5995;SDS011;3026;53.612;7.278;2022-10-28T09:55:28;13.37;;;6.90;;
5995;SDS011;3026;53.612;7.278;2022-10-28T09:57:56;15.07;;;6.00;;
5995;SDS011;3026;53.612;7.278;2022-10-28T10:00:24;14.13;;;6.87;;
5995;SDS011;3026;53.612;7.278;2022-10-28T10:02:54;11.23;;;6.70;;
5995;SDS011;3026;53.612;7.278;2022-10-28T10:05:23;12.57;;;7.00;;
5995;SDS011;3026;53.612;7.278;2022-10-28T10:07:51;11.73;;;6.10;;
5995;SDS011;3026;53.612;7.278;2022-10-28T10:10:25;14.60;;;7.03;;
5995;SDS011;3026;53.612;7.278;2022-10-28T10:12:55;16.87;;;7.13;;
5995;SDS011;3026;53.612;7.278;2022-10-28T10:15:26;18.97;;;6.80;;
5995;SDS011;3026;53.612;7.278;2022-10-28T10:17:56;14.23;;;6.70;;
5995;SDS011;3026;53.612;7.278;2022-10-28T10:20:25;14.73;;;6.93;;
5995;SDS011;3026;53.612;7.278;2022-10-28T10:22:52;12.67;;;6.33;;
5995;SDS011;3026;53.612;7.278;2022-10-28T10:25:25;18.03;;;7.20;;
5995;SDS011;3026;53.612;7.278;2022-10-28T10:27:56;13.10;;;6.23;;
5995;SDS011;3026;53.612;7.278;2022-10-28T10:30:27;15.87;;;6.27;;
5995;SDS011;3026;53.612;7.278;2022-10-28T10:32:56;12.33;;;6.77;;
5995;SDS011;3026;53.612;7.278;2022-10-28T10:35:24;14.00;;;6.20;;
5995;SDS011;3026;53.612;7.278;2022-10-28T10:37:53;16.47;;;6.93;;
5995;SDS011;3026;53.612;7.278;2022-10-28T10:40:22;11.90;;;6.17;;
5995;SDS011;3026;53.612;7.278;2022-10-28T10:42:55;15.87;;;6.67;;
5995;SDS011;3026;53.612;7.278;2022-10-28T10:45:45;12.77;;;6.83;;
5995;SDS011;3026;53.612;7.278;2022-10-28T10:48:17;15.67;;;6.40;;
5995;SDS011;3026;53.612;7.278;2022-10-28T10:50:44;13.47;;;6.43;;
5995;SDS011;3026;53.612;7.278;2022-10-28T10:53:18;14.80;;;6.83;;
5995;SDS011;3026;53.612;7.278;2022-10-28T10:55:49;13.13;;;6.70;;
5995;SDS011;3026;53.612;7.278;2022-10-28T10:58:20;14.80;;;7.53;;
5995;SDS011;3026;53.612;7.278;2022-10-28T11:00:49;14.90;;;7.70;;
5995;SDS011;3026;53.612;7.278;2022-10-28T11:03:18;16.33;;;7.20;;
5995;SDS011;3026;53.612;7.278;2022-10-28T11:05:48;11.30;;;6.33;;
5995;SDS011;3026;53.612;7.278;2022-10-28T11:08:30;12.10;;;6.60;;
5995;SDS011;3026;53.612;7.278;2022-10-28T11:11:09;15.60;;;7.37;;
5995;SDS011;3026;53.612;7.278;2022-10-28T11:13:38;18.50;;;7.10;;
5995;SDS011;3026;53.612;7.278;2022-10-28T11:16:10;15.00;;;7.03;;
5995;SDS011;3026;53.612;7.278;2022-10-28T11:18:44;13.13;;;6.57;;
5995;SDS011;3026;53.612;7.278;2022-10-28T11:21:17;13.10;;;6.13;;
5995;SDS011;3026;53.612;7.278;2022-10-28T11:24:02;18.67;;;6.63;;
5995;SDS011;3026;53.612;7.278;2022-10-28T11:26:43;14.47;;;6.27;;
5995;SDS011;3026;53.612;7.278;2022-10-28T11:29:17;13.13;;;6.67;;
5995;SDS011;3026;53.612;7.278;2022-10-28T11:34:51;13.23;;;6.57;;
5995;SDS011;3026;53.612;7.278;2022-10-28T11:37:31;15.30;;;7.40;;
5995;SDS011;3026;53.612;7.278;2022-10-28T11:40:13;14.93;;;6.83;;
5995;SDS011;3026;53.612;7.278;2022-10-28T11:42:59;15.03;;;6.17;;
5995;SDS011;3026;53.612;7.278;2022-10-28T11:45:37;12.73;;;6.27;;
5995;SDS011;3026;53.612;7.278;2022-10-28T11:48:14;14.63;;;6.67;;
5995;SDS011;3026;53.612;7.278;2022-10-28T11:50:51;15.63;;;6.57;;
5995;SDS011;3026;53.612;7.278;2022-10-28T11:53:35;11.73;;;6.20;;
5995;SDS011;3026;53.612;7.278;2022-10-28T11:56:19;14.40;;;7.20;;
5995;SDS011;3026;53.612;7.278;2022-10-28T11:58:58;16.27;;;6.50;;
5995;SDS011;3026;53.612;7.278;2022-10-28T12:01:40;12.37;;;5.83;;
5995;SDS011;3026;53.612;7.278;2022-10-28T12:07:12;16.30;;;6.37;;
5995;SDS011;3026;53.612;7.278;2022-10-28T12:09:56;14.10;;;5.50;;
5995;SDS011;3026;53.612;7.278;2022-10-28T12:12:47;9.57;;;5.60;;
5995;SDS011;3026;53.612;7.278;2022-10-28T12:15:30;11.93;;;5.77;;
5995;SDS011;3026;53.612;7.278;2022-10-28T12:18:01;15.87;;;5.77;;
5995;SDS011;3026;53.612;7.278;2022-10-28T12:20:34;13.27;;;6.37;;
5995;SDS011;3026;53.612;7.278;2022-10-28T12:23:09;15.50;;;6.63;;
5995;SDS011;3026;53.612;7.278;2022-10-28T12:25:38;11.13;;;5.83;;
5995;SDS011;3026;53.612;7.278;2022-10-28T12:28:13;17.37;;;5.60;;
5995;SDS011;3026;53.612;7.278;2022-10-28T12:30:45;12.77;;;5.63;;
5995;SDS011;3026;53.612;7.278;2022-10-28T12:33:15;15.20;;;5.67;;
5995;SDS011;3026;53.612;7.278;2022-10-28T12:35:47;11.13;;;5.43;;
5995;SDS011;3026;53.612;7.278;2022-10-28T12:38:19;12.47;;;6.40;;
5995;SDS011;3026;53.612;7.278;2022-10-28T12:40:52;11.83;;;5.60;;
5995;SDS011;3026;53.612;7.278;2022-10-28T12:43:26;12.23;;;5.53;;
5995;SDS011;3026;53.612;7.278;2022-10-28T12:46:00;10.70;;;5.77;;
5995;SDS011;3026;53.612;7.278;2022-10-28T12:48:30;12.23;;;5.90;;
5995;SDS011;3026;53.612;7.278;2022-10-28T12:51:02;13.03;;;5.60;;
5995;SDS011;3026;53.612;7.278;2022-10-28T12:53:39;9.67;;;5.77;;
5995;SDS011;3026;53.612;7.278;2022-10-28T12:56:11;20.80;;;5.93;;
5995;SDS011;3026;53.612;7.278;2022-10-28T12:58:45;14.60;;;6.23;;
5995;SDS011;3026;53.612;7.278;2022-10-28T13:01:22;11.93;;;5.97;;
5995;SDS011;3026;53.612;7.278;2022-10-28T13:03:52;10.93;;;5.40;;
5995;SDS011;3026;53.612;7.278;2022-10-28T13:06:29;10.77;;;5.83;;
5995;SDS011;3026;53.612;7.278;2022-10-28T13:09:33;11.33;;;5.53;;
5995;SDS011;3026;53.612;7.278;2022-10-28T13:12:16;14.97;;;6.17;;
5995;SDS011;3026;53.612;7.278;2022-10-28T13:15:20;12.83;;;6.00;;
5995;SDS011;3026;53.612;7.278;2022-10-28T13:18:17;10.07;;;5.23;;
5995;SDS011;3026;53.612;7.278;2022-10-28T13:21:02;13.30;;;5.30;;
5995;SDS011;3026;53.612;7.278;2022-10-28T13:23:38;16.63;;;5.67;;
5995;SDS011;3026;53.612;7.278;2022-10-28T13:26:13;13.93;;;5.90;;
5995;SDS011;3026;53.612;7.278;2022-10-28T13:28:47;13.93;;;5.60;;
5995;SDS011;3026;53.612;7.278;2022-10-28T13:31:15;8.83;;;5.20;;
5995;SDS011;3026;53.612;7.278;2022-10-28T13:33:47;16.83;;;6.00;;
5995;SDS011;3026;53.612;7.278;2022-10-28T13:36:19;16.27;;;5.33;;
5995;SDS011;3026;53.612;7.278;2022-10-28T13:38:52;12.17;;;5.70;;
5995;SDS011;3026;53.612;7.278;2022-10-28T13:41:36;11.07;;;5.20;;
5995;SDS011;3026;53.612;7.278;2022-10-28T13:56:08;16.23;;;5.40;;
5995;SDS011;3026;53.612;7.278;2022-10-28T13:58:47;10.67;;;5.77;;
5995;SDS011;3026;53.612;7.278;2022-10-28T14:04:20;11.07;;;5.93;;
5995;SDS011;3026;53.612;7.278;2022-10-28T14:06:59;13.67;;;6.03;;
5995;SDS011;3026;53.612;7.278;2022-10-28T14:09:30;14.40;;;5.60;;
5995;SDS011;3026;53.612;7.278;2022-10-28T14:12:04;16.20;;;6.27;;
5995;SDS011;3026;53.612;7.278;2022-10-28T14:14:51;16.07;;;5.80;;
5995;SDS011;3026;53.612;7.278;2022-10-28T14:17:23;14.53;;;5.77;;
5995;SDS011;3026;53.612;7.278;2022-10-28T14:19:52;14.00;;;6.33;;
5995;SDS011;3026;53.612;7.278;2022-10-28T14:22:28;17.60;;;6.77;;
5995;SDS011;3026;53.612;7.278;2022-10-28T14:24:58;13.50;;;5.87;;
5995;SDS011;3026;53.612;7.278;2022-10-28T14:27:25;13.20;;;5.90;;
5995;SDS011;3026;53.612;7.278;2022-10-28T14:42:01;14.17;;;6.67;;
5995;SDS011;3026;53.612;7.278;2022-10-28T14:44:45;12.77;;;5.80;;
5995;SDS011;3026;53.612;7.278;2022-10-28T14:47:32;13.50;;;6.73;;
5995;SDS011;3026;53.612;7.278;2022-10-28T14:50:17;18.30;;;6.77;;
5995;SDS011;3026;53.612;7.278;2022-10-28T14:52:47;12.33;;;5.67;;
5995;SDS011;3026;53.612;7.278;2022-10-28T14:55:21;10.77;;;5.67;;
5995;SDS011;3026;53.612;7.278;2022-10-28T14:57:50;18.07;;;6.37;;
5995;SDS011;3026;53.612;7.278;2022-10-28T15:00:18;15.33;;;6.47;;
5995;SDS011;3026;53.612;7.278;2022-10-28T15:02:47;12.13;;;6.40;;
5995;SDS011;3026;53.612;7.278;2022-10-28T15:05:15;18.07;;;6.63;;
5995;SDS011;3026;53.612;7.278;2022-10-28T15:07:44;17.67;;;6.27;;
5995;SDS011;3026;53.612;7.278;2022-10-28T15:10:12;11.63;;;5.83;;
5995;SDS011;3026;53.612;7.278;2022-10-28T15:12:43;15.67;;;6.40;;
5995;SDS011;3026;53.612;7.278;2022-10-28T15:15:17;13.90;;;6.20;;
5995;SDS011;3026;53.612;7.278;2022-10-28T15:17:45;15.43;;;6.80;;
5995;SDS011;3026;53.612;7.278;2022-10-28T15:20:18;11.17;;;6.03;;
5995;SDS011;3026;53.612;7.278;2022-10-28T15:22:47;12.33;;;5.53;;
5995;SDS011;3026;53.612;7.278;2022-10-28T15:25:15;11.30;;;5.93;;
5995;SDS011;3026;53.612;7.278;2022-10-28T15:27:45;12.87;;;6.00;;
5995;SDS011;3026;53.612;7.278;2022-10-28T15:30:16;20.13;;;6.80;;
5995;SDS011;3026;53.612;7.278;2022-10-28T15:32:45;14.03;;;5.93;;
5995;SDS011;3026;53.612;7.278;2022-10-28T15:41:04;16.20;;;6.03;;
5995;SDS011;3026;53.612;7.278;2022-10-28T15:44:01;15.27;;;5.90;;
5995;SDS011;3026;53.612;7.278;2022-10-28T15:46:29;17.07;;;6.10;;
5995;SDS011;3026;53.612;7.278;2022-10-28T15:48:57;15.73;;;5.93;;
5995;SDS011;3026;53.612;7.278;2022-10-28T15:51:27;8.93;;;5.17;;
5995;SDS011;3026;53.612;7.278;2022-10-28T15:53:54;16.13;;;6.37;;
5995;SDS011;3026;53.612;7.278;2022-10-28T15:56:51;14.00;;;6.40;;
5995;SDS011;3026;53.612;7.278;2022-10-28T15:59:21;12.67;;;5.80;;
5995;SDS011;3026;53.612;7.278;2022-10-28T16:01:49;14.80;;;6.07;;
5995;SDS011;3026;53.612;7.278;2022-10-28T16:07:09;16.57;;;6.30;;
5995;SDS011;3026;53.612;7.278;2022-10-28T16:09:36;11.23;;;5.57;;
5995;SDS011;3026;53.612;7.278;2022-10-28T16:12:11;11.03;;;5.53;;
5995;SDS011;3026;53.612;7.278;2022-10-28T16:14:42;14.50;;;5.67;;
5995;SDS011;3026;53.612;7.278;2022-10-28T16:17:12;12.70;;;6.60;;
5995;SDS011;3026;53.612;7.278;2022-10-28T16:19:43;17.90;;;5.73;;
5995;SDS011;3026;53.612;7.278;2022-10-28T16:22:15;15.30;;;6.00;;